createdAt,value
2023-03-11T00:01:04.445Z,2.67
2023-03-11T00:03:08.271Z,2.68
2023-03-11T00:05:16.145Z,2.69
2023-03-11T00:07:19.354Z,2.69
2023-03-11T00:09:20.908Z,2.68
2023-03-11T00:11:23.070Z,2.69
2023-03-11T00:13:25.032Z,2.68
2023-03-11T00:15:27.829Z,2.69
2023-03-11T00:17:29.538Z,2.68
2023-03-11T00:19:31.599Z,2.68
2023-03-11T00:21:33.350Z,2.67
2023-03-11T00:23:36.743Z,2.67
2023-03-11T00:25:39.671Z,2.66
2023-03-11T00:27:41.395Z,2.66
2023-03-11T00:29:43.064Z,2.67
2023-03-11T00:31:45.313Z,2.68
2023-03-11T00:33:49.050Z,2.69
2023-03-11T00:35:51.413Z,2.69
2023-03-11T00:37:54.868Z,2.71
2023-03-11T00:39:58.050Z,2.71
2023-03-11T00:41:59.902Z,2.72
2023-03-11T00:44:01.659Z,2.73
2023-03-11T00:46:03.541Z,2.74
2023-03-11T00:48:06.397Z,2.74
2023-03-11T00:50:10.501Z,2.76
2023-03-11T00:52:12.091Z,2.75
2023-03-11T00:54:13.697Z,2.75
2023-03-11T00:56:17.325Z,2.76
2023-03-11T00:58:18.875Z,2.77
2023-03-11T01:00:22.339Z,2.77
2023-03-11T01:02:24.213Z,2.78
2023-03-11T01:04:26.093Z,2.79
2023-03-11T01:06:35.795Z,2.79
2023-03-11T01:08:42.701Z,2.78
2023-03-11T01:10:44.543Z,2.74
2023-03-11T01:12:48.151Z,2.72
2023-03-11T01:14:49.774Z,2.73
2023-03-11T01:16:51.527Z,2.70
2023-03-11T01:18:53.332Z,2.70
2023-03-11T01:20:55.038Z,2.71
2023-03-11T01:22:56.628Z,2.70
2023-03-11T01:24:58.296Z,2.68
2023-03-11T01:27:00.493Z,2.69
2023-03-11T01:29:03.581Z,2.67
2023-03-11T01:31:05.186Z,2.71
2023-03-11T01:33:08.624Z,2.67
2023-03-11T01:35:12.005Z,2.65
2023-03-11T01:37:13.875Z,2.66
2023-03-11T01:39:15.552Z,2.66
2023-03-11T01:41:17.273Z,2.63
2023-03-11T01:43:48.750Z,2.65
2023-03-11T01:46:17.656Z,2.62
2023-03-11T01:48:19.261Z,2.60
2023-03-11T01:50:21.216Z,2.57
2023-03-11T01:52:23.451Z,2.55
2023-03-11T01:54:28.641Z,2.55
2023-03-11T01:56:31.249Z,2.55
2023-03-11T01:58:38.173Z,2.54
2023-03-11T02:00:42.115Z,2.53
2023-03-11T02:02:51.346Z,2.52
2023-03-11T02:04:55.222Z,2.50
2023-03-11T02:06:57.415Z,2.49
2023-03-11T02:09:01.357Z,2.47
2023-03-11T02:11:06.249Z,2.45
2023-03-11T02:13:08.121Z,2.45
2023-03-11T02:15:11.256Z,2.43
2023-03-11T02:17:13.669Z,2.41
2023-03-11T02:19:25.097Z,2.40
2023-03-11T02:21:29.023Z,2.40
2023-03-11T02:23:39.590Z,2.39
2023-03-11T02:25:46.441Z,2.38
2023-03-11T02:27:53.517Z,2.37
2023-03-11T02:29:55.714Z,2.33
2023-03-11T02:31:59.497Z,2.35
2023-03-11T02:34:04.420Z,2.34
2023-03-11T02:36:07.071Z,2.31
2023-03-11T02:38:08.739Z,2.32
2023-03-11T02:40:36.814Z,2.32
2023-03-11T02:42:38.353Z,2.28
2023-03-11T02:44:44.712Z,2.29
2023-03-11T02:46:46.614Z,2.27
2023-03-11T02:48:49.156Z,2.25
2023-03-11T02:50:52.134Z,2.25
2023-03-11T02:52:54.081Z,2.24
2023-03-11T02:54:55.727Z,2.23
2023-03-11T02:56:57.486Z,2.21
2023-03-11T02:58:59.237Z,2.22
2023-03-11T03:01:02.667Z,2.21
2023-03-11T03:03:04.589Z,2.20
2023-03-11T03:05:07.682Z,2.19
2023-03-11T03:07:09.437Z,2.20
2023-03-11T03:09:11.089Z,2.19
2023-03-11T03:11:12.859Z,2.18
2023-03-11T03:13:14.959Z,2.19
2023-03-11T03:15:17.291Z,2.16
2023-03-11T03:17:20.295Z,2.17
2023-03-11T03:19:22.095Z,2.16
2023-03-11T03:21:23.994Z,2.19
2023-03-11T03:23:25.817Z,2.17
2023-03-11T03:25:27.485Z,2.18
2023-03-11T03:27:33.714Z,2.19
2023-03-11T03:29:35.469Z,2.20
2023-03-11T03:31:38.570Z,2.20
2023-03-11T03:33:41.658Z,2.22
2023-03-11T03:35:45.042Z,2.23
2023-03-11T03:37:49.893Z,2.23
2023-03-11T03:39:51.615Z,2.25
2023-03-11T03:41:53.257Z,2.24
2023-03-11T03:43:55.145Z,2.26
2023-03-11T03:45:57.588Z,2.26
2023-03-11T03:47:59.250Z,2.25
2023-03-11T03:50:02.598Z,2.24
2023-03-11T03:52:05.652Z,2.24
2023-03-11T03:54:07.365Z,2.25
2023-03-11T03:56:11.275Z,2.23
2023-03-11T03:58:13.099Z,2.25
2023-03-11T04:00:15.637Z,2.22
2023-03-11T04:02:17.323Z,2.21
2023-03-11T04:04:19.241Z,2.20
2023-03-11T04:06:23.849Z,2.22
2023-03-11T04:08:25.420Z,2.22
2023-03-11T04:10:27.136Z,2.23
2023-03-11T04:12:28.688Z,2.25
2023-03-11T04:14:30.518Z,2.23
2023-03-11T04:16:33.369Z,2.24
2023-03-11T04:18:35.111Z,2.25
2023-03-11T04:20:38.773Z,2.25
2023-03-11T04:22:41.780Z,2.26
2023-03-11T04:24:43.350Z,2.26
2023-03-11T04:26:45.262Z,2.26
2023-03-11T04:28:46.945Z,2.27
2023-03-11T04:30:48.814Z,2.27
2023-03-11T04:32:50.778Z,2.28
2023-03-11T04:34:52.375Z,2.29
2023-03-11T04:36:55.991Z,2.29
2023-03-11T04:38:59.108Z,2.29
2023-03-11T04:41:01.061Z,2.30
2023-03-11T04:43:02.600Z,2.30
2023-03-11T04:45:05.317Z,2.27
2023-03-11T04:47:07.262Z,2.27
2023-03-11T04:49:08.920Z,2.27
2023-03-11T04:51:10.620Z,2.26
2023-03-11T04:53:12.556Z,2.27
2023-03-11T04:55:16.896Z,2.24
2023-03-11T04:57:18.694Z,2.26
2023-03-11T04:59:20.374Z,2.27
2023-03-11T05:01:21.986Z,2.26
2023-03-11T05:03:23.915Z,2.25
2023-03-11T05:05:25.865Z,2.26
2023-03-11T05:07:27.722Z,2.26
2023-03-11T05:09:29.873Z,2.26
2023-03-11T05:11:33.156Z,2.25
2023-03-11T05:13:35.141Z,2.24
2023-03-11T05:15:36.769Z,2.23
2023-03-11T05:17:38.619Z,2.23
2023-03-11T05:19:40.584Z,2.22
2023-03-11T05:21:42.312Z,2.21
2023-03-11T05:23:43.945Z,2.20
2023-03-11T05:25:45.841Z,2.17
2023-03-11T05:27:49.330Z,2.19
2023-03-11T05:29:51.102Z,2.18
2023-03-11T05:31:53.007Z,2.14
2023-03-11T05:33:54.930Z,2.15
2023-03-11T05:36:03.446Z,2.13
2023-03-11T05:38:05.275Z,2.13
2023-03-11T05:40:09.793Z,2.12
2023-03-11T05:42:11.590Z,2.12
2023-03-11T05:44:14.610Z,2.11
2023-03-11T05:46:16.861Z,2.11
2023-03-11T05:48:18.656Z,2.12
2023-03-11T05:50:21.007Z,2.09
2023-03-11T05:52:22.604Z,2.10
2023-03-11T05:54:24.249Z,2.10
2023-03-11T05:56:26.213Z,2.09
2023-03-11T05:58:28.125Z,2.09
2023-03-11T06:00:31.170Z,2.08
2023-03-11T06:02:33.073Z,2.07
2023-03-11T06:04:34.846Z,2.07
2023-03-11T06:06:36.724Z,2.04
2023-03-11T06:08:39.320Z,2.03
2023-03-11T06:10:41.638Z,2.03
2023-03-11T06:12:43.477Z,2.04
2023-03-11T06:14:45.289Z,2.05
2023-03-11T06:16:48.449Z,2.04
2023-03-11T06:18:50.072Z,2.04
2023-03-11T06:20:51.795Z,2.05
2023-03-11T06:22:53.406Z,2.04
2023-03-11T06:24:55.045Z,2.04
2023-03-11T06:26:56.891Z,2.05
2023-03-11T06:28:58.526Z,2.03
2023-03-11T06:31:07.869Z,2.03
2023-03-11T06:33:11.103Z,2.02
2023-03-11T06:35:12.927Z,2.02
2023-03-11T06:37:14.555Z,2.00
2023-03-11T06:39:16.615Z,2.00
2023-03-11T06:41:18.259Z,2.00
2023-03-11T06:43:21.604Z,1.96
2023-03-11T06:45:23.444Z,1.94
2023-03-11T06:47:25.060Z,1.94
2023-03-11T06:49:28.145Z,1.91
2023-03-11T06:51:30.221Z,1.91
2023-03-11T06:53:32.502Z,1.91
2023-03-11T06:55:34.442Z,1.91
2023-03-11T06:57:36.000Z,1.89
2023-03-11T06:59:38.006Z,1.89
2023-03-11T07:01:39.608Z,1.87
2023-03-11T07:03:42.175Z,1.88
2023-03-11T07:05:45.759Z,1.88
2023-03-11T07:07:47.626Z,1.88
2023-03-11T07:09:49.179Z,1.90
2023-03-11T07:11:51.739Z,1.91
2023-03-11T07:13:54.285Z,2.01
2023-03-11T07:16:03.984Z,2.11
2023-03-11T07:18:05.949Z,2.19
2023-03-11T07:20:09.263Z,2.30
2023-03-11T07:22:12.492Z,2.41
2023-03-11T07:24:14.350Z,2.52
2023-03-11T07:26:16.599Z,2.62
2023-03-11T07:28:19.080Z,2.73
2023-03-11T07:30:20.955Z,2.84
2023-03-11T07:32:23.214Z,2.96
2023-03-11T07:34:25.128Z,3.06
2023-03-11T07:36:27.908Z,3.13
2023-03-11T07:38:30.842Z,3.25
2023-03-11T07:40:32.570Z,3.35
2023-03-11T07:42:34.187Z,3.47
2023-03-11T07:44:36.242Z,3.56
2023-03-11T07:46:37.914Z,3.66
2023-03-11T07:48:40.541Z,3.75
2023-03-11T07:50:42.093Z,3.84
2023-03-11T07:52:44.024Z,3.92
2023-03-11T07:54:47.321Z,4.04
2023-03-11T07:56:48.957Z,4.10
2023-03-11T07:58:51.531Z,4.20
2023-03-11T08:00:54.364Z,4.30
2023-03-11T08:02:56.542Z,4.34
2023-03-11T08:04:58.382Z,4.46
2023-03-11T08:07:00.013Z,4.53
2023-03-11T08:09:04.509Z,4.59
2023-03-11T08:11:07.687Z,4.67
2023-03-11T08:13:09.402Z,4.74
2023-03-11T08:15:11.552Z,4.85
2023-03-11T08:17:13.283Z,4.95
2023-03-11T08:19:14.833Z,5.05
2023-03-11T08:21:19.402Z,5.14
2023-03-11T08:23:21.026Z,5.23
2023-03-11T08:25:22.669Z,5.35
2023-03-11T08:27:27.892Z,5.47
2023-03-11T08:29:29.436Z,5.40
2023-03-11T08:31:33.363Z,5.34
2023-03-11T08:33:34.985Z,5.27
2023-03-11T08:35:37.140Z,5.19
2023-03-11T08:37:39.357Z,5.08
2023-03-11T08:39:41.255Z,5.03
2023-03-11T08:41:42.923Z,4.87
2023-03-11T08:43:45.959Z,4.81
2023-03-11T08:45:47.648Z,4.81
2023-03-11T08:47:49.899Z,4.81
2023-03-11T08:49:51.461Z,4.91
2023-03-11T08:51:53.139Z,4.96
2023-03-11T08:53:55.018Z,4.90
2023-03-11T08:55:56.690Z,4.87
2023-03-11T08:57:58.300Z,4.87
2023-03-11T09:00:01.303Z,4.85
2023-03-11T09:02:03.514Z,4.85
2023-03-11T09:04:05.721Z,4.82
2023-03-11T09:06:10.660Z,4.78
2023-03-11T09:08:12.549Z,4.75
2023-03-11T09:10:17.615Z,4.83
2023-03-11T09:12:19.229Z,4.78
2023-03-11T09:14:20.984Z,4.78
2023-03-11T09:16:25.204Z,4.72
2023-03-11T09:18:27.050Z,4.70
2023-03-11T09:20:28.652Z,4.70
2023-03-11T09:22:30.661Z,4.82
2023-03-11T09:24:33.805Z,4.97
2023-03-11T09:26:35.502Z,4.95
2023-03-11T09:28:37.560Z,4.95
2023-03-11T09:30:39.382Z,4.97
2023-03-11T09:32:42.593Z,4.95
2023-03-11T09:34:44.265Z,4.92
2023-03-11T09:36:46.272Z,4.89
2023-03-11T09:38:48.725Z,4.84
2023-03-11T09:40:59.861Z,4.82
2023-03-11T09:43:10.841Z,4.82
2023-03-11T09:45:17.410Z,4.75
2023-03-11T09:47:31.608Z,4.74
2023-03-11T09:49:45.955Z,4.72
2023-03-11T09:51:56.551Z,4.69
2023-03-11T09:54:04.474Z,4.69
2023-03-11T09:56:08.044Z,4.63
2023-03-11T09:58:14.606Z,4.65
2023-03-11T10:00:20.874Z,4.60
2023-03-11T10:02:25.295Z,4.59
2023-03-11T10:04:32.143Z,4.61
2023-03-11T10:06:36.296Z,4.63
2023-03-11T10:08:43.469Z,4.65
2023-03-11T10:10:56.975Z,4.70
2023-03-11T10:13:08.713Z,4.72
2023-03-11T10:15:20.081Z,4.72
2023-03-11T10:17:43.259Z,4.71
2023-03-11T10:19:55.089Z,4.72
2023-03-11T10:22:05.805Z,4.72
2023-03-11T10:24:19.927Z,4.73
2023-03-11T10:26:28.329Z,4.73
2023-03-11T10:28:35.805Z,4.74
2023-03-11T10:30:43.407Z,4.74
2023-03-11T10:32:49.568Z,4.76
2023-03-11T10:34:57.142Z,4.78
2023-03-11T10:37:04.696Z,4.79
2023-03-11T10:39:06.924Z,4.81
2023-03-11T10:41:19.465Z,4.79
2023-03-11T10:43:27.807Z,4.86
2023-03-11T10:45:36.950Z,4.86
2023-03-11T10:47:38.903Z,4.88
2023-03-11T10:49:40.535Z,4.88
2023-03-11T10:51:46.637Z,4.90
2023-03-11T10:53:52.074Z,4.86
2023-03-11T10:55:57.194Z,4.93
2023-03-11T10:58:07.192Z,5.01
2023-03-11T11:00:11.497Z,4.99
2023-03-11T11:02:23.894Z,5.02
2023-03-11T11:04:33.508Z,5.08
2023-03-11T11:06:36.738Z,5.10
2023-03-11T11:08:38.522Z,5.21
2023-03-11T11:10:50.520Z,5.35
2023-03-11T11:12:55.017Z,5.38
2023-03-11T11:14:57.386Z,5.43
2023-03-11T11:16:59.187Z,5.45
2023-03-11T11:19:05.005Z,5.52
2023-03-11T11:21:08.852Z,5.62
2023-03-11T11:23:26.451Z,5.70
2023-03-11T11:25:32.297Z,5.72
2023-03-11T11:27:36.509Z,5.68
2023-03-11T11:29:38.880Z,5.66
2023-03-11T11:31:42.192Z,5.78
2023-03-11T11:33:50.900Z,5.87
2023-03-11T11:35:55.312Z,5.81
2023-03-11T11:38:02.684Z,5.80
2023-03-11T11:40:07.373Z,5.95
2023-03-11T11:42:13.578Z,6.01
2023-03-11T11:44:21.697Z,5.92
2023-03-11T11:46:28.404Z,5.88
2023-03-11T11:48:36.218Z,5.84
2023-03-11T11:50:43.711Z,5.82
2023-03-11T11:52:51.924Z,5.81
2023-03-11T11:54:59.076Z,5.98
2023-03-11T11:57:05.248Z,5.98
2023-03-11T11:59:15.117Z,6.02
2023-03-11T12:01:22.592Z,6.06
2023-03-11T12:03:49.651Z,6.07
2023-03-11T12:05:58.272Z,6.04
2023-03-11T12:08:13.907Z,6.03
2023-03-11T12:10:24.008Z,6.01
2023-03-11T12:12:33.035Z,6.00
2023-03-11T12:14:41.859Z,5.96
2023-03-11T12:16:55.046Z,5.92
2023-03-11T12:19:03.700Z,6.01
2023-03-11T12:21:18.138Z,6.14
2023-03-11T12:23:24.803Z,6.28
2023-03-11T12:25:39.919Z,6.31
2023-03-11T12:27:47.369Z,6.30
2023-03-11T12:29:54.844Z,6.31
2023-03-11T12:32:01.680Z,6.30
2023-03-11T12:34:06.805Z,6.27
2023-03-11T12:36:23.068Z,6.31
2023-03-11T12:38:30.497Z,6.25
2023-03-11T12:41:01.120Z,6.23
2023-03-11T12:43:03.067Z,6.13
2023-03-11T12:45:47.856Z,6.14
2023-03-11T12:48:20.423Z,6.18
2023-03-11T12:50:41.923Z,6.15
2023-03-11T12:52:54.340Z,6.15
2023-03-11T12:55:29.091Z,6.27
2023-03-11T12:57:37.235Z,6.35
2023-03-11T13:00:13.522Z,6.57
2023-03-11T13:02:30.202Z,6.67
2023-03-11T13:04:43.147Z,6.78
2023-03-11T13:07:07.430Z,6.83
2023-03-11T13:09:14.676Z,6.92
2023-03-11T13:11:43.333Z,7.07
2023-03-11T13:13:45.870Z,7.17
2023-03-11T13:15:47.873Z,7.26
2023-03-11T13:17:58.288Z,7.30
2023-03-11T13:20:00.059Z,7.35
2023-03-11T13:22:04.453Z,7.49
2023-03-11T13:24:54.335Z,7.56
2023-03-11T13:27:07.859Z,7.63
2023-03-11T13:29:38.120Z,7.66
2023-03-11T13:31:55.248Z,7.70
2023-03-11T13:34:02.670Z,7.74
2023-03-11T13:36:14.986Z,7.78
2023-03-11T13:38:39.011Z,7.79
2023-03-11T13:40:46.569Z,7.80
2023-03-11T13:42:50.968Z,7.82
2023-03-11T13:44:53.308Z,7.86
2023-03-11T13:47:00.657Z,7.90
2023-03-11T13:49:06.821Z,7.89
2023-03-11T13:51:16.330Z,7.77
2023-03-11T13:53:24.519Z,7.70
2023-03-11T13:55:32.416Z,7.72
2023-03-11T13:57:35.497Z,7.76
2023-03-11T13:59:37.180Z,7.73
2023-03-11T14:01:39.615Z,7.74
2023-03-11T14:03:44.990Z,7.78
2023-03-11T14:05:48.509Z,7.79
2023-03-11T14:07:50.573Z,7.85
2023-03-11T14:10:21.093Z,7.83
2023-03-11T14:12:22.911Z,7.86
2023-03-11T14:14:46.906Z,7.90
2023-03-11T14:16:49.100Z,7.87
2023-03-11T14:19:02.513Z,7.84
2023-03-11T14:21:06.583Z,7.84
2023-03-11T14:23:19.182Z,7.84
2023-03-11T14:25:25.316Z,7.79
2023-03-11T14:27:27.088Z,7.79
2023-03-11T14:29:33.246Z,7.79
2023-03-11T14:31:36.908Z,7.80
2023-03-11T14:33:38.551Z,7.78
2023-03-11T14:36:01.703Z,7.80
2023-03-11T14:38:20.184Z,7.80
2023-03-11T14:40:29.531Z,7.82
2023-03-11T14:42:34.678Z,7.83
2023-03-11T14:44:40.727Z,7.88
2023-03-11T14:46:45.286Z,7.87
2023-03-11T14:48:47.001Z,7.86
2023-03-11T14:50:49.906Z,7.88
2023-03-11T14:52:55.700Z,7.86
2023-03-11T14:54:57.894Z,7.83
2023-03-11T14:57:06.971Z,7.75
2023-03-11T14:59:15.104Z,7.80
2023-03-11T15:01:21.278Z,7.84
2023-03-11T15:03:26.361Z,7.83
2023-03-11T15:05:37.520Z,7.79
2023-03-11T15:07:39.626Z,7.80
2023-03-11T15:09:42.201Z,7.79
2023-03-11T15:11:45.492Z,7.74
2023-03-11T15:13:48.892Z,7.73
2023-03-11T15:15:56.345Z,7.71
2023-03-11T15:18:00.150Z,7.69
2023-03-11T15:20:02.034Z,7.67
2023-03-11T15:22:21.443Z,7.65
2023-03-11T15:24:27.710Z,7.59
2023-03-11T15:26:32.676Z,7.55
2023-03-11T15:28:37.224Z,7.48
2023-03-11T15:30:41.302Z,7.40
2023-03-11T15:32:44.257Z,7.33
2023-03-11T15:34:45.882Z,7.28
2023-03-11T15:36:57.339Z,7.23
2023-03-11T15:39:14.584Z,7.18
2023-03-11T15:41:16.247Z,7.13
2023-03-11T15:43:22.994Z,7.08
2023-03-11T15:45:24.813Z,7.04
2023-03-11T15:47:28.024Z,7.02
2023-03-11T15:49:30.086Z,7.01
2023-03-11T15:51:31.801Z,6.96
2023-03-11T15:53:33.894Z,6.94
2023-03-11T15:55:37.016Z,6.91
2023-03-11T15:57:40.328Z,6.84
2023-03-11T15:59:41.953Z,6.82
2023-03-11T16:01:43.936Z,6.77
2023-03-11T16:03:47.055Z,6.74
2023-03-11T16:05:48.835Z,6.70
2023-03-11T16:07:51.189Z,6.65
2023-03-11T16:09:52.865Z,6.62
2023-03-11T16:11:54.871Z,6.59
2023-03-11T16:13:56.566Z,6.55
2023-03-11T16:15:58.517Z,6.52
2023-03-11T16:18:02.143Z,6.48
2023-03-11T16:20:06.393Z,6.47
2023-03-11T16:22:16.148Z,6.43
2023-03-11T16:24:22.664Z,6.42
2023-03-11T16:26:24.356Z,6.39
2023-03-11T16:28:26.444Z,6.33
2023-03-11T16:30:30.664Z,6.32
2023-03-11T16:32:32.324Z,6.31
2023-03-11T16:34:34.037Z,6.27
2023-03-11T16:36:37.043Z,6.23
2023-03-11T16:38:45.128Z,6.22
2023-03-11T16:40:56.054Z,6.17
2023-03-11T16:43:00.938Z,6.12
2023-03-11T16:45:04.101Z,6.10
2023-03-11T16:47:06.512Z,6.06
2023-03-11T16:49:08.150Z,6.03
2023-03-11T16:51:10.661Z,6.01
2023-03-11T16:53:14.192Z,5.98
2023-03-11T16:55:15.966Z,5.95
2023-03-11T16:57:18.060Z,5.92
2023-03-11T16:59:19.675Z,5.90
2023-03-11T17:01:21.857Z,5.88
2023-03-11T17:03:24.824Z,5.85
2023-03-11T17:05:26.665Z,5.82
2023-03-11T17:07:28.510Z,5.78
2023-03-11T17:09:31.711Z,5.77
2023-03-11T17:11:33.265Z,5.72
2023-03-11T17:13:35.417Z,5.70
2023-03-11T17:15:37.992Z,5.68
2023-03-11T17:17:39.539Z,5.67
2023-03-11T17:19:41.217Z,5.63
2023-03-11T17:21:42.944Z,5.61
2023-03-11T17:23:45.058Z,5.59
2023-03-11T17:25:48.560Z,5.56
2023-03-11T17:27:50.772Z,5.52
2023-03-11T17:29:54.968Z,5.52
2023-03-11T17:31:58.390Z,5.50
2023-03-11T17:34:00.214Z,5.49
2023-03-11T17:36:02.339Z,5.49
2023-03-11T17:38:04.454Z,5.48
2023-03-11T17:40:07.279Z,5.46
2023-03-11T17:42:10.491Z,5.42
2023-03-11T17:44:12.179Z,5.42
2023-03-11T17:46:15.486Z,5.34
2023-03-11T17:48:17.238Z,5.26
2023-03-11T17:50:18.972Z,5.20
2023-03-11T17:52:20.563Z,5.12
2023-03-11T17:54:22.530Z,5.02
2023-03-11T17:56:24.328Z,4.96
2023-03-11T17:58:27.503Z,4.87
2023-03-11T18:00:29.148Z,4.79
2023-03-11T18:02:30.959Z,4.73
2023-03-11T18:04:32.607Z,4.67
2023-03-11T18:06:34.692Z,4.62
2023-03-11T18:08:37.089Z,4.58
2023-03-11T18:10:38.717Z,4.54
2023-03-11T18:12:44.405Z,4.50
2023-03-11T18:14:47.804Z,4.43
2023-03-11T18:16:49.450Z,4.41
2023-03-11T18:18:51.890Z,4.38
2023-03-11T18:20:53.749Z,4.35
2023-03-11T18:22:55.421Z,4.32
2023-03-11T18:24:57.051Z,4.27
2023-03-11T18:26:58.600Z,4.27
2023-03-11T18:29:00.868Z,4.25
2023-03-11T18:31:07.736Z,4.20
2023-03-11T18:33:09.403Z,4.19
2023-03-11T18:35:11.330Z,4.18
2023-03-11T18:37:13.139Z,4.14
2023-03-11T18:39:15.187Z,4.11
2023-03-11T18:41:17.014Z,4.11
2023-03-11T18:43:18.841Z,4.10
2023-03-11T18:45:20.937Z,4.08
2023-03-11T18:47:24.234Z,4.08
2023-03-11T18:49:25.904Z,4.05
2023-03-11T18:51:29.580Z,4.04
2023-03-11T18:53:31.537Z,4.01
2023-03-11T18:55:34.959Z,4.01
2023-03-11T18:57:36.707Z,3.97
2023-03-11T18:59:38.592Z,3.96
2023-03-11T19:01:40.272Z,3.93
2023-03-11T19:03:45.126Z,3.93
2023-03-11T19:05:48.088Z,3.92
2023-03-11T19:07:51.447Z,3.90
2023-03-11T19:09:53.349Z,3.88
2023-03-11T19:11:55.222Z,3.85
2023-03-11T19:13:57.060Z,3.85
2023-03-11T19:16:00.112Z,3.83
2023-03-11T19:18:06.914Z,3.80
2023-03-11T19:20:12.313Z,3.77
2023-03-11T19:22:14.146Z,3.76
2023-03-11T19:24:15.830Z,3.73
2023-03-11T19:26:17.503Z,3.70
2023-03-11T19:28:20.106Z,3.68
2023-03-11T19:30:21.752Z,3.65
2023-03-11T19:32:23.768Z,3.64
2023-03-11T19:34:25.802Z,3.60
2023-03-11T19:36:28.965Z,3.57
2023-03-11T19:38:30.826Z,3.55
2023-03-11T19:40:32.772Z,3.55
2023-03-11T19:42:34.541Z,3.51
2023-03-11T19:44:36.701Z,3.52
2023-03-11T19:46:38.367Z,3.50
2023-03-11T19:48:40.548Z,3.49
2023-03-11T19:50:42.069Z,3.47
2023-03-11T19:52:45.467Z,3.48
2023-03-11T19:54:47.105Z,3.45
2023-03-11T19:56:49.160Z,3.44
2023-03-11T19:58:50.964Z,3.44
2023-03-11T20:00:52.871Z,3.42
2023-03-11T20:02:55.387Z,3.40
2023-03-11T20:04:57.198Z,3.39
2023-03-11T20:06:59.111Z,3.39
2023-03-11T20:09:02.539Z,3.38
2023-03-11T20:11:05.427Z,3.38
2023-03-11T20:13:07.323Z,3.36
2023-03-11T20:15:10.382Z,3.37
2023-03-11T20:17:12.541Z,3.36
2023-03-11T20:19:14.254Z,3.36
2023-03-11T20:21:15.952Z,3.36
2023-03-11T20:23:17.996Z,3.36
2023-03-11T20:25:21.885Z,3.38
2023-03-11T20:27:23.600Z,3.37
2023-03-11T20:29:25.408Z,3.35
2023-03-11T20:31:28.208Z,3.37
2023-03-11T20:33:29.898Z,3.38
2023-03-11T20:35:31.561Z,3.38
2023-03-11T20:37:33.484Z,3.38
2023-03-11T20:39:35.290Z,3.39
2023-03-11T20:41:40.067Z,3.40
2023-03-11T20:43:41.895Z,3.40
2023-03-11T20:45:43.499Z,3.38
2023-03-11T20:47:46.557Z,3.38
2023-03-11T20:49:48.433Z,3.37
2023-03-11T20:51:50.198Z,3.37
2023-03-11T20:53:52.308Z,3.37
2023-03-11T20:55:54.031Z,3.35
2023-03-11T20:57:57.047Z,3.35
2023-03-11T20:59:58.668Z,3.37
2023-03-11T21:02:00.598Z,3.35
2023-03-11T21:04:03.609Z,3.33
2023-03-11T21:06:12.183Z,3.32
2023-03-11T21:08:13.778Z,3.33
2023-03-11T21:10:15.696Z,3.32
2023-03-11T21:12:17.738Z,3.32
2023-03-11T21:14:20.920Z,3.32
2023-03-11T21:16:23.556Z,3.33
2023-03-11T21:18:25.940Z,3.33
2023-03-11T21:20:27.904Z,3.33
2023-03-11T21:22:31.675Z,3.35
2023-03-11T21:24:33.404Z,3.36
2023-03-11T21:26:35.691Z,3.37
2023-03-11T21:28:38.399Z,3.38
2023-03-11T21:30:41.469Z,3.38
2023-03-11T21:32:43.490Z,3.39
2023-03-11T21:34:45.255Z,3.40
2023-03-11T21:36:47.089Z,3.38
2023-03-11T21:38:49.592Z,3.40
2023-03-11T21:40:53.574Z,3.38
2023-03-11T21:42:55.763Z,3.39
2023-03-11T21:44:57.728Z,3.37
2023-03-11T21:47:00.945Z,3.34
2023-03-11T21:49:02.966Z,3.33
2023-03-11T21:51:05.366Z,3.31
2023-03-11T21:53:07.791Z,3.29
2023-03-11T21:55:09.665Z,3.27
2023-03-11T21:57:11.283Z,3.27
2023-03-11T21:59:13.141Z,3.26
2023-03-11T22:01:15.470Z,3.26
2023-03-11T22:03:19.861Z,3.23
2023-03-11T22:05:21.506Z,3.22
2023-03-11T22:07:23.657Z,3.20
2023-03-11T22:09:25.590Z,3.21
2023-03-11T22:11:27.956Z,3.20
2023-03-11T22:13:29.482Z,3.20
2023-03-11T22:15:31.212Z,3.17
2023-03-11T22:17:33.195Z,3.16
2023-03-11T22:19:36.558Z,3.17
2023-03-11T22:21:38.450Z,3.17
2023-03-11T22:23:39.995Z,3.17
2023-03-11T22:25:41.632Z,3.19
2023-03-11T22:27:43.198Z,3.19
2023-03-11T22:29:45.019Z,3.18
2023-03-11T22:31:46.991Z,3.19
2023-03-11T22:33:48.670Z,3.20
2023-03-11T22:35:54.724Z,3.20
2023-03-11T22:37:57.166Z,3.20
2023-03-11T22:39:58.813Z,3.21
2023-03-11T22:42:00.664Z,3.21
2023-03-11T22:44:02.545Z,3.21
2023-03-11T22:46:05.517Z,3.22
2023-03-11T22:48:07.749Z,3.23
2023-03-11T22:50:10.525Z,3.24
2023-03-11T22:52:13.559Z,3.24
2023-03-11T22:54:15.158Z,3.24
2023-03-11T22:56:18.394Z,3.26
2023-03-11T22:58:20.426Z,3.25
2023-03-11T23:00:24.439Z,3.26
2023-03-11T23:02:26.300Z,3.27
2023-03-11T23:04:28.537Z,3.27
2023-03-11T23:06:30.453Z,3.27
2023-03-11T23:08:34.471Z,3.28
2023-03-11T23:10:36.512Z,3.27
2023-03-11T23:12:38.626Z,3.27
2023-03-11T23:14:45.025Z,3.28
2023-03-11T23:16:47.204Z,3.29
2023-03-11T23:18:51.475Z,3.30
2023-03-11T23:20:53.128Z,3.28
2023-03-11T23:22:54.778Z,3.28
2023-03-11T23:25:01.355Z,3.30
2023-03-11T23:27:04.170Z,3.27
2023-03-11T23:29:05.966Z,3.29
2023-03-11T23:31:08.133Z,3.28
2023-03-11T23:33:09.736Z,3.25
2023-03-11T23:35:12.461Z,3.26
2023-03-11T23:37:14.009Z,3.25
2023-03-11T23:39:15.563Z,3.24
2023-03-11T23:41:20.823Z,3.25
2023-03-11T23:43:22.696Z,3.22
2023-03-11T23:45:24.256Z,3.20
2023-03-11T23:47:26.152Z,3.17
2023-03-11T23:49:27.953Z,3.18
2023-03-11T23:51:30.087Z,3.16
2023-03-11T23:53:32.854Z,3.16
2023-03-11T23:55:37.612Z,3.15
2023-03-11T23:57:40.922Z,3.12
2023-03-11T23:59:42.532Z,3.10
